»·PEaware :: N678WG KADM-KSAT

N678WG :: KADM-KSAT

FLIGHT INFORMATION

Flight Status: Arrived
Operator: Privately registered:
United States
More flights under this callsign
Pilot: Steve K. (2395)
Aircraft: PILATUS PC-12 EAGLE
(PC12)
More flights by this aircraft type
Origin: KADM Ardmore Mun
United States
Destination: KSAT San Antonio Intl
United States
More flights between these airports :: More routes between these airports
Route: ADM NFW AGJ SAT
File this flight plan on PilotEdge
Remarks: FSE
Altitude:
(Current/Filed)
22,000ft
Speed:
(Current/Filed)
150kts
Departed: 18-May-15 07:10 AM
Arrived: 18-May-15 08:37 AM
Distance/Time
Traveled:
280nm/1:26
Distance/Time
To Go:
Arrived

Flight Plot

Page will automatically refresh every two minutes.


Map Options




Map Legend


Flown Route
Filed Route
Departure Airport
Arrival Airport
Navaid (VOR, NDB)
Fix

Horizontal Profiles

Position Reports

Time Latitude Longitude Heading Altitude Ground
Speed
18-May-15 07:06 34.310734 -97.024513 128 765ft 0kts
18-May-15 07:07 34.307286 -97.020338 135 765ft 96kts
18-May-15 07:08 34.280966 -97.013077 240 2486ft 125kts
18-May-15 07:09 34.254192 -97.038949 215 4523ft 127kts
18-May-15 07:10 34.223352 -97.063696 216 6533ft 138kts
18-May-15 07:11 34.189745 -97.090247 216 8563ft 149kts
18-May-15 07:12 34.153738 -97.118237 216 10576ft 158kts
18-May-15 07:13 34.115400 -97.147335 217 12592ft 167kts
18-May-15 07:14 34.074055 -97.177847 217 14604ft 181kts
18-May-15 07:15 34.027117 -97.201554 202 16670ft 180kts
18-May-15 07:16 33.979092 -97.213148 200 18646ft 170kts
18-May-15 07:17 33.934310 -97.221790 198 20640ft 152kts
18-May-15 07:18 33.894482 -97.229219 199 22108ft 160kts
18-May-15 07:19 33.841250 -97.242574 198 22081ft 220kts
18-May-15 07:20 33.778041 -97.256666 196 22078ft 236kts
18-May-15 07:21 33.712960 -97.269652 196 22157ft 238kts
18-May-15 07:22 33.647229 -97.282259 196 22168ft 239kts
18-May-15 07:23 33.581083 -97.294788 196 22168ft 240kts
18-May-15 07:24 33.526267 -97.305087 196 22181ft 239kts
18-May-15 07:25 33.449242 -97.319510 196 22178ft 239kts
18-May-15 07:26 33.383161 -97.331856 196 22170ft 240kts
18-May-15 07:27 33.327977 -97.342159 196 22156ft 240kts
18-May-15 07:28 33.261982 -97.354430 195 22157ft 240kts
18-May-15 07:29 33.195812 -97.366691 195 22154ft 240kts
18-May-15 07:30 33.129703 -97.378895 195 22155ft 240kts
18-May-15 07:31 33.063770 -97.391001 195 22159ft 239kts
18-May-15 07:32 32.997682 -97.403057 195 22168ft 239kts
18-May-15 07:33 32.931599 -97.414967 195 22169ft 240kts
18-May-15 07:34 32.865573 -97.426626 195 22172ft 240kts
18-May-15 07:35 32.798978 -97.437429 194 22153ft 241kts
18-May-15 07:36 32.736461 -97.461337 207 22143ft 234kts
18-May-15 07:37 32.675402 -97.489304 207 22114ft 235kts
18-May-15 07:38 32.614395 -97.516804 206 22168ft 234kts
18-May-15 07:39 32.553232 -97.544276 206 22167ft 234kts
18-May-15 07:40 32.492286 -97.571593 206 22167ft 234kts
18-May-15 07:41 32.431287 -97.598881 206 22167ft 234kts
18-May-15 07:42 32.369900 -97.626297 206 22173ft 234kts
18-May-15 07:43 32.308808 -97.653540 206 22184ft 234kts
18-May-15 07:44 32.247771 -97.680728 206 22187ft 234kts
18-May-15 07:45 32.186469 -97.707998 206 22192ft 235kts
18-May-15 07:46 32.125079 -97.735279 206 22190ft 235kts
18-May-15 07:47 32.063832 -97.762436 206 22207ft 235kts
18-May-15 07:48 32.002507 -97.789584 206 22211ft 235kts
18-May-15 07:49 31.940850 -97.816856 206 22204ft 236kts
18-May-15 07:50 31.879105 -97.844115 206 22206ft 236kts
18-May-15 07:51 31.817269 -97.871361 206 22204ft 237kts
18-May-15 07:52 31.755546 -97.898523 206 22194ft 237kts
18-May-15 07:53 31.693580 -97.925727 206 22196ft 237kts
18-May-15 07:54 31.631488 -97.952937 205 22192ft 238kts
18-May-15 07:55 31.569247 -97.980172 205 22188ft 238kts
18-May-15 07:56 31.507054 -98.007303 205 22189ft 239kts
18-May-15 07:57 31.444575 -98.034477 205 22187ft 239kts
18-May-15 07:58 31.381951 -98.061589 205 22186ft 239kts
18-May-15 07:59 31.319533 -98.088426 204 22187ft 239kts
18-May-15 08:00 31.256808 -98.115021 204 22187ft 239kts
18-May-15 08:01 31.193503 -98.140146 201 22187ft 240kts
18-May-15 08:02 31.127980 -98.158679 197 22185ft 242kts
18-May-15 08:03 31.061844 -98.173774 196 22200ft 244kts
18-May-15 08:04 30.994632 -98.188184 195 22203ft 244kts
18-May-15 08:05 30.927592 -98.202315 195 22207ft 245kts
18-May-15 08:06 30.859870 -98.216516 195 22216ft 246kts
18-May-15 08:07 30.792265 -98.230659 195 22219ft 247kts
18-May-15 08:08 30.724345 -98.244829 195 22221ft 247kts
18-May-15 08:09 30.656289 -98.258996 195 22223ft 248kts
18-May-15 08:10 30.588405 -98.273097 195 22223ft 248kts
18-May-15 08:11 30.520246 -98.287226 195 22212ft 248kts
18-May-15 08:12 30.452128 -98.301301 195 22213ft 248kts
18-May-15 08:13 30.384112 -98.315338 195 22203ft 248kts
18-May-15 08:14 30.316110 -98.329357 195 22192ft 248kts
18-May-15 08:15 30.247899 -98.343386 195 22186ft 248kts
18-May-15 08:16 30.179490 -98.357450 194 22158ft 249kts
18-May-15 08:17 30.110860 -98.371570 194 21378ft 251kts
18-May-15 08:18 30.042899 -98.388540 194 19650ft 241kts
18-May-15 08:19 29.980039 -98.401447 192 17651ft 220kts
18-May-15 08:20 29.920307 -98.412610 192 15646ft 214kts
18-May-15 08:21 29.861789 -98.423590 191 13651ft 211kts
18-May-15 08:22 29.804037 -98.434367 190 11648ft 208kts
18-May-15 08:23 29.746994 -98.444903 190 9645ft 206kts
18-May-15 08:24 29.691207 -98.454914 190 7649ft 199kts
18-May-15 08:25 29.640022 -98.471282 232 5641ft 192kts
18-May-15 08:26 29.652735 -98.525648 312 3675ft 200kts
18-May-15 08:27 29.684143 -98.563899 262 3175ft 110kts
18-May-15 08:28 29.659670 -98.570647 181 3216ft 101kts
18-May-15 08:29 29.631524 -98.570440 181 3168ft 104kts
18-May-15 08:30 29.601972 -98.558505 154 2608ft 119kts
18-May-15 08:31 29.578723 -98.532194 130 1904ft 110kts
18-May-15 08:32 29.559862 -98.507235 132 1367ft 99kts
18-May-15 08:33 29.541778 -98.484219 133 821ft 86kts
18-May-15 08:34 29.535904 -98.477963 172 812ft 0kts
18-May-15 08:35 29.535904 -98.477963 172 812ft 0kts
18-May-15 08:36 29.535904 -98.477963 172 812ft 0kts
18-May-15 08:37 29.535873 -98.479198 309 812ft 19kts
18-May-15 08:38 29.537790 -98.480059 28 812ft 9kts
18-May-15 08:39 29.530620 -98.469774 131 933ft 122kts
18-May-15 08:40 29.526611 -98.434500 21 2758ft 156kts
18-May-15 08:41 29.566725 -98.453497 328 4705ft 166kts
18-May-15 08:42 29.612685 -98.468178 1 6642ft 180kts
18-May-15 08:43 29.659241 -98.478648 314 8571ft 180kts
18-May-15 08:44 29.695591 -98.519862 313 10487ft 185kts
18-May-15 08:45 29.732820 -98.562005 313 12395ft 189kts
18-May-15 08:46 29.770830 -98.604878 313 14299ft 195kts
18-May-15 08:47 29.809958 -98.649023 312 16203ft 197kts
18-May-15 08:48 29.848615 -98.692759 315 18107ft 189kts

Navigation Log

Ident Type
Flight plan parsing failed, navigation log unavailable